Albany, Kentucky
Current Conditions -  °F | °C
As of 12:56 PM on Thursday 23 Oct 2014 (Local Time) from KEKQ Reporting Station
Clear Clear  
Wind Chill: 60°   Ceiling: Unl
Heat Index: 60°   Visibility: 10mi
Dew Point: 43°   Wind: 5mph
Humidity: 54%   Direction: 100°E
Pressure: 30.19"   Gusts: NA
Location:  36.69°N, 85.13°W
Report Text: KEKQ 231756Z AUTO 10004KT 10SM CLR 16/06 A3019 RMK AO2 58020 T01550061 10161 20077 SLP230
Loading
Personal Weather Stations






























Interactive Weather Map New forecast layout! Learn more

10-Day Weather Forecast

Advertisements
Track Severe Weather on mobile